Terminal Aerodrome Forecast
Issued by NWS

Home | Current Version | Previous Version | Text Only | Print | Product List | Glossary On
Versions: 1 2 3 4 5 6 7 8 9 10 11 12 13 14
000
FTUS44 KLIX 031120
TAFHUM
TAF
KHUM 031120Z 0312/0412 06011KT P6SM VCSH OVC090
     FM031500 09014G21KT P6SM VCSH SCT025 OVC080
     FM032300 11015KT P6SM -RA OVC035
     FM040300 11013KT P6SM VCSH OVC015=

USA.gov is the U.S. government's official web portal to all federal, state and local government web resources and services.